Airport ID:KMHV
Update Time (UTC):30/03/2020 10:54
Wind Speed (Knots):6
Wind Direction (Magnetic):320
Temperature (°C):8
Dew Point (°C):0
Humidity (%):59
Altimeter (inHg):30.14
Density Altitude (Feet):
Visibility (Miles):10+
Clouds (Hundreds of feet):CLR
Present Weather:
METAR:METAR KMHV 301040Z AUTO 32008KT 10SM CLR 08/01 A3014 RMK A01

The data displayed is for advisory purposes only and is not to be used for flight planning or operations.

This page is not automatically refreshed. Reload the page to see current data.